Time;durP1;ratioP1;P1;durP2;ratioP2;P2;SDS_P1;SDS_P2;PMS_P1;PMS_P2;Temp;Humidity;BMP_temperature;BMP_pressure;BME280_temperature;BME280_humidity;BME280_pressure;Samples;Min_cycle;Max_cycle;Signal;HPM_P1;HPM_P2
2022/12/02 00:01:14;;;;;;;53.95;24.90;;;0.60;99.90;;;;;;5089748;28;20204;-76
2022/12/02 00:03:43;;;;;;;42.80;20.80;;;0.50;99.90;;;;;;5105665;28;20284;-76
2022/12/02 00:06:15;;;;;;;52.00;25.65;;;0.50;99.90;;;;;;5105147;28;20471;-76
2022/12/02 00:08:42;;;;;;;47.47;25.40;;;0.50;99.90;;;;;;5091750;28;20227;-76
2022/12/02 00:11:25;;;;;;;44.67;24.00;;;0.50;99.90;;;;;;5100999;28;20855;-77
2022/12/02 00:13:52;;;;;;;46.47;23.63;;;0.50;99.90;;;;;;5101109;28;20522;-77
2022/12/02 00:16:21;;;;;;;54.30;24.92;;;0.50;99.90;;;;;;5099835;28;20494;-77
2022/12/02 00:18:49;;;;;;;58.08;24.05;;;0.50;99.90;;;;;;5099703;28;20679;-77
2022/12/02 00:21:17;;;;;;;48.13;23.25;;;0.50;99.90;;;;;;5094753;28;20326;-76
2022/12/02 00:23:50;;;;;;;50.35;27.30;;;0.60;99.90;;;;;;5098957;28;20250;-79
2022/12/02 00:26:20;;;;;;;50.13;24.77;;;0.50;99.90;;;;;;5102608;28;20201;-80
2022/12/02 00:28:47;;;;;;;53.60;25.93;;;0.50;99.90;;;;;;5092843;27;20284;-78
2022/12/02 00:31:14;;;;;;;53.15;23.45;;;0.60;99.90;;;;;;5095790;28;20488;-78
2022/12/02 00:33:42;;;;;;;55.47;26.95;;;0.60;99.90;;;;;;5102114;28;20207;-78
2022/12/02 00:36:10;;;;;;;51.03;23.53;;;0.50;99.90;;;;;;5092196;28;20197;-78
2022/12/02 00:38:37;;;;;;;49.90;22.73;;;0.50;99.90;;;;;;5100358;28;20575;-78
2022/12/02 00:41:04;;;;;;;38.40;21.53;;;0.50;99.90;;;;;;5095034;28;20534;-78
2022/12/02 00:46:33;;;;;;;61.10;27.07;;;0.50;99.90;;;;;;5086727;28;21016;-78
2022/12/02 00:49:02;;;;;;;47.00;24.97;;;0.50;99.90;;;;;;5095540;28;20945;-79
2022/12/02 00:51:31;;;;;;;47.03;24.83;;;0.60;99.90;;;;;;5096562;28;20459;-78
2022/12/02 00:53:58;;;;;;;52.50;25.00;;;0.50;99.90;;;;;;5087839;28;20497;-78
2022/12/02 00:56:25;;;;;;;48.33;26.00;;;0.50;99.90;;;;;;5095809;28;20985;-78
2022/12/02 00:58:52;;;;;;;48.60;23.07;;;0.50;99.90;;;;;;5090568;28;20917;-78
2022/12/02 01:01:19;;;;;;;44.50;22.40;;;0.50;99.90;;;;;;5091490;28;20481;-78
2022/12/02 01:03:46;;;;;;;44.43;24.33;;;0.50;99.90;;;;;;5090817;28;20841;-78
2022/12/02 01:06:13;;;;;;;50.40;27.03;;;0.50;99.90;;;;;;5102086;28;20557;-76
2022/12/02 01:08:41;;;;;;;42.17;23.02;;;0.40;99.90;;;;;;5102707;28;20484;-76
2022/12/02 01:11:09;;;;;;;42.00;21.20;;;0.50;99.90;;;;;;5104993;28;20646;-76
2022/12/02 01:13:36;;;;;;;49.10;27.02;;;0.50;99.90;;;;;;5090473;28;20504;-76
2022/12/02 01:16:05;;;;;;;56.67;24.90;;;0.50;99.90;;;;;;5089436;28;20240;-78
2022/12/02 01:18:32;;;;;;;49.00;25.07;;;0.50;99.90;;;;;;5091680;28;20936;-76
2022/12/02 01:20:59;;;;;;;46.57;25.30;;;0.40;99.90;;;;;;5098041;28;20466;-76
2022/12/02 01:23:26;;;;;;;50.53;26.20;;;0.40;99.90;;;;;;5094157;28;20460;-76
2022/12/02 01:25:54;;;;;;;48.73;23.80;;;0.40;99.90;;;;;;5099681;28;20534;-76
2022/12/02 01:28:21;;;;;;;48.37;26.17;;;0.40;99.90;;;;;;5104121;27;20512;-76
2022/12/02 01:30:48;;;;;;;54.50;25.42;;;0.40;99.90;;;;;;5100677;28;20532;-76
2022/12/02 01:33:15;;;;;;;48.37;25.03;;;0.40;99.90;;;;;;5100079;28;20241;-76
2022/12/02 01:35:42;;;;;;;51.53;24.27;;;0.30;99.90;;;;;;5088993;28;20760;-77
2022/12/02 01:38:09;;;;;;;48.70;25.03;;;0.30;99.90;;;;;;5092870;28;20296;-76
2022/12/02 01:40:36;;;;;;;48.90;23.10;;;0.30;99.90;;;;;;5099631;28;20519;-77
2022/12/02 01:43:04;;;;;;;40.22;21.70;;;0.30;99.90;;;;;;5098368;28;20542;-77
2022/12/02 01:45:32;;;;;;;43.42;21.23;;;0.30;99.90;;;;;;5088617;28;20207;-77
2022/12/02 01:48:00;;;;;;;47.55;22.67;;;0.30;99.90;;;;;;5091338;28;20239;-77
2022/12/02 01:50:28;;;;;;;49.13;23.30;;;0.30;99.90;;;;;;5093725;28;20284;-77
2022/12/02 01:52:55;;;;;;;51.17;22.67;;;0.20;99.90;;;;;;5092129;28;20482;-77
2022/12/02 01:55:24;;;;;;;55.70;25.27;;;0.20;99.90;;;;;;5084158;28;20241;-77
2022/12/02 01:57:51;;;;;;;54.30;28.33;;;0.20;99.90;;;;;;5088630;28;20259;-77
2022/12/02 02:00:20;;;;;;;51.10;24.52;;;0.30;99.90;;;;;;5100407;28;20516;-77
2022/12/02 02:02:47;;;;;;;50.05;24.40;;;0.40;99.90;;;;;;5086662;28;20285;-77
2022/12/02 02:05:17;;;;;;;57.30;26.38;;;0.30;99.90;;;;;;5087916;28;20239;-77
2022/12/02 02:07:46;;;;;;;49.08;26.08;;;0.30;99.90;;;;;;5087625;28;20243;-77
2022/12/02 02:10:13;;;;;;;51.60;24.33;;;0.30;99.90;;;;;;5085163;28;20248;-77
2022/12/02 02:12:45;;;;;;;52.50;23.52;;;0.30;99.90;;;;;;5096779;28;20873;-78
2022/12/02 02:15:13;;;;;;;58.90;27.63;;;0.30;99.90;;;;;;5088306;28;20212;-77
2022/12/02 02:17:42;;;;;;;50.78;25.63;;;0.30;99.90;;;;;;5098672;28;20235;-77
2022/12/02 02:20:14;;;;;;;55.45;24.85;;;0.20;99.90;;;;;;5101039;28;20261;-76
2022/12/02 02:22:45;;;;;;;48.85;25.92;;;0.30;99.90;;;;;;5097130;28;20268;-77
2022/12/02 02:25:17;;;;;;;48.28;25.50;;;0.20;99.90;;;;;;5100374;28;20256;-77
2022/12/02 02:27:48;;;;;;;50.15;24.50;;;0.20;99.90;;;;;;5088151;28;20233;-77
2022/12/02 02:30:15;;;;;;;46.08;22.75;;;0.30;99.90;;;;;;5088689;28;20226;-77
2022/12/02 02:32:42;;;;;;;44.00;23.85;;;0.20;99.90;;;;;;5094833;28;20239;-76
2022/12/02 02:35:09;;;;;;;48.92;21.90;;;0.20;99.90;;;;;;5101033;28;20240;-77
2022/12/02 02:37:37;;;;;;;52.67;24.75;;;0.20;99.90;;;;;;5101483;28;20296;-77
2022/12/02 02:40:06;;;;;;;46.25;23.75;;;0.20;99.90;;;;;;5089308;28;20238;-77
2022/12/02 02:42:35;;;;;;;58.15;24.50;;;0.20;99.90;;;;;;5103583;28;20805;-77
2022/12/02 02:45:02;;;;;;;42.30;22.10;;;0.20;99.90;;;;;;5106385;27;20248;-77
2022/12/02 02:47:30;;;;;;;45.80;24.50;;;0.20;99.90;;;;;;5091793;28;20563;-77
2022/12/02 02:49:57;;;;;;;46.47;24.10;;;0.20;99.90;;;;;;5083985;28;20279;-76
2022/12/02 02:52:24;;;;;;;47.70;23.50;;;0.30;99.90;;;;;;5091443;28;20857;-76
2022/12/02 02:54:51;;;;;;;51.77;24.73;;;0.20;99.90;;;;;;5098010;28;21231;-76
2022/12/02 02:57:18;;;;;;;44.10;21.67;;;0.20;99.90;;;;;;5095766;28;20500;-76
2022/12/02 02:59:48;;;;;;;38.53;19.20;;;0.20;99.90;;;;;;5093710;28;20262;-76
2022/12/02 03:02:15;;;;;;;38.45;20.95;;;0.20;99.90;;;;;;5084347;28;20287;-77
2022/12/02 03:04:43;;;;;;;50.17;23.77;;;0.20;99.90;;;;;;5089740;28;20241;-76
2022/12/02 03:07:11;;;;;;;48.05;23.20;;;0.20;99.90;;;;;;5088711;28;20207;-76
2022/12/02 03:09:38;;;;;;;48.13;23.30;;;0.10;99.90;;;;;;5097553;28;20231;-76
2022/12/02 03:12:07;;;;;;;57.20;23.20;;;0.20;99.90;;;;;;5092229;27;20242;-76
2022/12/02 03:14:34;;;;;;;46.33;20.53;;;0.20;99.90;;;;;;5090613;27;20658;-76
2022/12/02 03:17:04;;;;;;;46.33;22.20;;;0.10;99.90;;;;;;5094849;28;20477;-76
2022/12/02 03:19:32;;;;;;;44.60;20.23;;;0.10;99.90;;;;;;5110400;28;20230;-76
2022/12/02 03:22:01;;;;;;;43.53;20.67;;;0.10;99.90;;;;;;5105158;28;20476;-77
2022/12/02 03:24:28;;;;;;;53.72;24.50;;;0.10;99.90;;;;;;5099822;28;20533;-76
2022/12/02 03:26:55;;;;;;;46.80;23.00;;;0.10;99.90;;;;;;5088024;28;20228;-76
2022/12/02 03:29:22;;;;;;;51.30;23.67;;;0.10;99.90;;;;;;5088167;28;21038;-76
2022/12/02 03:31:49;;;;;;;50.17;23.63;;;0.10;99.90;;;;;;5094724;28;20237;-76
2022/12/02 03:34:18;;;;;;;46.67;21.67;;;0.10;99.90;;;;;;5098707;28;20485;-76
2022/12/02 03:36:45;;;;;;;42.87;23.37;;;0.00;99.90;;;;;;5095094;28;20469;-76
2022/12/02 03:39:12;;;;;;;45.30;23.67;;;0.10;99.90;;;;;;5103998;28;20484;-76
2022/12/02 03:41:40;;;;;;;45.83;19.17;;;0.10;99.90;;;;;;5101982;28;20480;-76
2022/12/02 03:44:07;;;;;;;46.73;21.67;;;0.10;99.90;;;;;;5088899;28;20493;-76
2022/12/02 03:46:34;;;;;;;42.33;21.77;;;0.10;99.90;;;;;;5105194;27;20462;-76
2022/12/02 03:49:02;;;;;;;49.07;23.90;;;0.10;99.90;;;;;;5095676;28;21125;-76
2022/12/02 03:51:31;;;;;;;43.53;22.45;;;0.10;99.90;;;;;;5091031;28;21075;-76
2022/12/02 03:53:59;;;;;;;46.63;22.50;;;0.10;99.90;;;;;;5091324;28;20258;-76
2022/12/02 03:56:26;;;;;;;44.47;21.43;;;0.10;99.90;;;;;;5088892;28;20466;-76
2022/12/02 03:58:54;;;;;;;47.93;23.20;;;0.10;99.90;;;;;;5091985;28;20936;-76
2022/12/02 04:01:22;;;;;;;44.23;21.63;;;0.10;99.90;;;;;;5088628;28;20521;-76
2022/12/02 04:03:49;;;;;;;41.07;21.53;;;0.10;99.90;;;;;;5093832;28;20484;-76
2022/12/02 04:06:16;;;;;;;41.57;22.80;;;0.10;99.90;;;;;;5104002;28;21197;-76
2022/12/02 04:08:44;;;;;;;37.00;19.23;;;0.10;99.90;;;;;;5103747;28;20486;-76
2022/12/02 04:11:11;;;;;;;44.30;23.17;;;0.00;99.90;;;;;;5103793;28;21019;-75
2022/12/02 04:13:38;;;;;;;47.13;23.20;;;0.00;99.90;;;;;;5102343;28;20461;-76
2022/12/02 04:16:06;;;;;;;41.80;21.53;;;0.00;99.90;;;;;;5098084;28;20281;-76
2022/12/02 04:18:33;;;;;;;36.97;18.83;;;0.00;99.90;;;;;;5092296;28;20464;-76
2022/12/02 04:21:00;;;;;;;39.33;19.50;;;0.00;99.90;;;;;;5100675;28;20521;-76
2022/12/02 04:23:27;;;;;;;36.20;19.73;;;0.00;99.90;;;;;;5088056;28;20494;-76
2022/12/02 04:25:55;;;;;;;47.20;20.43;;;0.00;99.90;;;;;;5098913;28;20944;-76
2022/12/02 04:28:22;;;;;;;47.53;20.87;;;0.00;99.90;;;;;;5092184;28;20512;-76
2022/12/02 04:30:49;;;;;;;37.53;22.27;;;0.00;99.90;;;;;;5092899;28;20489;-76
2022/12/02 04:33:16;;;;;;;52.95;24.55;;;0.00;99.90;;;;;;5102260;28;20457;-76
2022/12/02 04:35:43;;;;;;;44.33;21.48;;;0.00;99.90;;;;;;5088463;28;20243;-76
2022/12/02 04:38:10;;;;;;;44.63;22.65;;;0.00;99.90;;;;;;5095475;28;20762;-76
2022/12/02 04:40:37;;;;;;;45.13;23.85;;;0.00;99.90;;;;;;5102894;28;20324;-76
2022/12/02 04:43:05;;;;;;;36.35;19.90;;;0.10;99.90;;;;;;5099512;28;20239;-76
2022/12/02 04:45:32;;;;;;;44.00;22.10;;;0.00;99.90;;;;;;5104824;28;20239;-76
2022/12/02 04:47:59;;;;;;;39.57;18.67;;;0.00;99.90;;;;;;5098335;28;20489;-76
2022/12/02 04:50:26;;;;;;;48.37;20.70;;;0.00;99.90;;;;;;5092122;28;20826;-76
2022/12/02 04:52:53;;;;;;;39.72;19.42;;;0.00;99.90;;;;;;5102794;28;20490;-76
2022/12/02 04:55:20;;;;;;;43.87;19.77;;;0.10;99.90;;;;;;5097898;28;20207;-76
2022/12/02 04:57:47;;;;;;;38.92;22.08;;;0.10;99.90;;;;;;5096528;28;20510;-76
2022/12/02 05:00:16;;;;;;;40.83;20.67;;;0.10;99.90;;;;;;5095103;28;20252;-76
2022/12/02 05:02:43;;;;;;;44.57;21.67;;;0.00;99.90;;;;;;5096820;28;20232;-76
2022/12/02 05:05:10;;;;;;;41.03;20.90;;;0.00;99.90;;;;;;5099089;28;20548;-76
2022/12/02 05:07:37;;;;;;;48.73;19.40;;;0.00;99.90;;;;;;5106278;28;20240;-76
2022/12/02 05:10:05;;;;;;;42.10;22.47;;;0.00;99.90;;;;;;5095114;28;20481;-76
2022/12/02 05:12:32;;;;;;;47.63;24.23;;;0.00;99.90;;;;;;5092341;28;20858;-76
2022/12/02 05:14:59;;;;;;;48.15;23.52;;;0.10;99.90;;;;;;5096673;28;20516;-76
2022/12/02 05:17:29;;;;;;;44.50;21.47;;;0.00;99.90;;;;;;5092540;28;20231;-77
2022/12/02 05:19:56;;;;;;;43.87;23.13;;;0.00;99.90;;;;;;5091583;28;20929;-76
2022/12/02 05:22:23;;;;;;;50.42;23.13;;;0.10;99.90;;;;;;5094339;28;20490;-77
2022/12/02 05:24:50;;;;;;;44.60;21.57;;;0.00;99.90;;;;;;5100498;28;20242;-76
2022/12/02 05:27:17;;;;;;;45.60;21.90;;;0.00;99.90;;;;;;5096616;28;20445;-76
2022/12/02 05:29:44;;;;;;;40.50;22.93;;;0.00;99.90;;;;;;5061188;28;1126953;-76
2022/12/02 05:32:11;;;;;;;41.03;21.63;;;0.00;99.90;;;;;;5098984;28;20564;-76
2022/12/02 05:34:40;;;;;;;49.90;21.40;;;0.00;99.90;;;;;;5098117;28;20196;-76
2022/12/02 05:37:07;;;;;;;41.85;23.05;;;0.00;99.90;;;;;;5091108;28;20466;-76
2022/12/02 05:39:34;;;;;;;43.47;21.85;;;0.00;99.90;;;;;;5093195;28;20526;-76
2022/12/02 05:42:06;;;;;;;44.73;22.90;;;-0.10;99.90;;;;;;5090035;28;20789;-76
2022/12/02 05:44:34;;;;;;;37.13;21.17;;;-0.10;99.90;;;;;;5090544;28;20450;-76
2022/12/02 05:47:05;;;;;;;35.90;18.97;;;-0.10;99.90;;;;;;5092490;28;20465;-76
2022/12/02 05:49:34;;;;;;;41.60;20.37;;;-0.10;99.90;;;;;;5091252;28;20458;-76
2022/12/02 05:52:13;;;;;;;46.00;23.47;;;-0.10;99.90;;;;;;5091673;28;20456;-76
2022/12/02 05:54:40;;;;;;;43.03;21.33;;;-0.10;99.90;;;;;;5088255;28;20485;-76
2022/12/02 05:57:11;;;;;;;43.33;19.00;;;0.00;99.90;;;;;;5088730;28;20514;-76
2022/12/02 05:59:38;;;;;;;45.78;20.10;;;-0.10;99.90;;;;;;5088487;28;20230;-76
2022/12/02 06:02:20;;;;;;;47.73;22.80;;;-0.10;99.90;;;;;;5084415;28;20274;-76
2022/12/02 06:04:47;;;;;;;46.53;21.73;;;-0.10;99.90;;;;;;5090535;28;20485;-76
2022/12/02 06:07:16;;;;;;;49.17;20.80;;;-0.10;99.90;;;;;;5097305;28;20495;-76
2022/12/02 06:09:43;;;;;;;43.38;21.20;;;-0.10;99.90;;;;;;5093220;28;20546;-76
2022/12/02 06:12:15;;;;;;;50.33;21.50;;;-0.10;99.90;;;;;;5095965;28;20257;-76
2022/12/02 06:14:44;;;;;;;45.37;23.50;;;-0.10;99.90;;;;;;5096068;28;20242;-76
2022/12/02 06:17:15;;;;;;;37.43;18.30;;;0.00;99.90;;;;;;5093087;28;20550;-76
2022/12/02 06:19:45;;;;;;;43.42;22.33;;;0.00;99.90;;;;;;5096227;28;20845;-76
2022/12/02 06:22:19;;;;;;;44.25;21.73;;;0.00;99.90;;;;;;5098341;28;20258;-78
2022/12/02 06:24:47;;;;;;;39.05;20.50;;;0.00;99.90;;;;;;5089957;28;20732;-78
2022/12/02 06:27:16;;;;;;;41.47;21.05;;;-0.10;99.90;;;;;;5090245;28;20286;-77
2022/12/02 06:29:48;;;;;;;43.47;20.73;;;-0.10;99.90;;;;;;5102443;28;20383;-77
2022/12/02 06:32:19;;;;;;;45.53;22.48;;;-0.10;99.90;;;;;;5092259;28;20460;-78
2022/12/02 06:34:48;;;;;;;41.43;24.63;;;-0.10;99.90;;;;;;5095899;28;20736;-77
2022/12/02 06:37:18;;;;;;;38.63;18.83;;;-0.10;99.90;;;;;;5090831;27;20496;-77
2022/12/02 06:39:49;;;;;;;40.80;21.98;;;-0.20;99.90;;;;;;5086542;28;20240;-77
2022/12/02 06:42:21;;;;;;;41.03;20.52;;;-0.20;99.90;;;;;;5086157;28;20254;-78
2022/12/02 06:45:08;;;;;;;39.05;22.65;;;-0.10;99.90;;;;;;5087753;28;20604;-77
2022/12/02 06:48:07;;;;;;;51.63;23.70;;;-0.10;99.90;;;;;;5089126;28;20218;-77
2022/12/02 06:50:37;;;;;;;47.33;23.27;;;-0.10;99.90;;;;;;5088715;28;20260;-77
2022/12/02 06:53:28;;;;;;;49.97;24.63;;;-0.10;99.90;;;;;;5089719;28;20238;-77
2022/12/02 06:56:00;;;;;;;48.57;23.80;;;-0.10;99.90;;;;;;5083118;28;21086;-78
2022/12/02 06:58:32;;;;;;;41.67;24.00;;;-0.10;99.90;;;;;;5085424;28;20905;-78
2022/12/02 07:01:19;;;;;;;44.33;25.17;;;-0.10;99.90;;;;;;5094612;28;20540;-77
2022/12/02 07:03:49;;;;;;;38.58;19.08;;;-0.20;99.90;;;;;;5091472;28;20564;-77
2022/12/02 07:06:19;;;;;;;41.33;21.00;;;-0.20;99.90;;;;;;5090900;28;20652;-77
2022/12/02 07:08:47;;;;;;;44.20;21.98;;;-0.10;99.90;;;;;;5083015;28;20493;-78
2022/12/02 07:11:48;;;;;;;45.67;23.67;;;-0.10;99.90;;;;;;5083835;28;20243;-78
2022/12/02 07:14:25;;;;;;;41.15;22.67;;;-0.10;99.90;;;;;;5094698;28;20827;-78
2022/12/02 07:16:54;;;;;;;53.85;27.27;;;-0.20;99.90;;;;;;5088269;28;20312;-78
2022/12/02 07:19:24;;;;;;;46.75;26.10;;;-0.20;99.90;;;;;;5091501;28;20304;-78
2022/12/02 07:21:51;;;;;;;63.40;31.65;;;-0.20;99.90;;;;;;5089128;28;20249;-78
2022/12/02 07:24:21;;;;;;;48.15;25.33;;;-0.10;99.90;;;;;;5092512;28;20874;-78
2022/12/02 07:26:50;;;;;;;63.25;33.42;;;-0.10;99.90;;;;;;5089738;28;20237;-78
2022/12/02 07:29:28;;;;;;;55.20;25.52;;;-0.10;99.90;;;;;;5091114;28;20317;-78
2022/12/02 07:31:56;;;;;;;66.43;32.15;;;-0.10;99.90;;;;;;5089430;28;20231;-79
2022/12/02 07:34:22;;;;;;;53.70;25.60;;;-0.10;99.90;;;;;;5082644;28;20277;-78
2022/12/02 07:36:49;;;;;;;49.28;29.23;;;-0.10;99.90;;;;;;5098193;28;20274;-78
2022/12/02 07:39:17;;;;;;;52.80;28.27;;;-0.10;99.90;;;;;;5084570;28;20252;-78
2022/12/02 07:41:44;;;;;;;54.33;28.55;;;-0.10;99.90;;;;;;5105649;28;20218;-78
2022/12/02 07:44:12;;;;;;;50.92;27.67;;;-0.10;99.90;;;;;;5091318;28;20211;-78
2022/12/02 07:46:39;;;;;;;54.40;28.05;;;-0.10;99.90;;;;;;5097666;28;20270;-78
2022/12/02 07:49:06;;;;;;;48.90;27.20;;;0.00;99.90;;;;;;5095339;28;20243;-78
2022/12/02 07:51:33;;;;;;;44.70;23.45;;;-0.10;99.90;;;;;;5094744;28;20643;-78
2022/12/02 07:54:00;;;;;;;47.10;26.20;;;-0.10;99.90;;;;;;5089796;28;20268;-78
2022/12/02 07:56:27;;;;;;;54.78;28.42;;;-0.10;99.90;;;;;;5086291;28;20465;-78
2022/12/02 07:58:54;;;;;;;65.72;30.25;;;-0.10;99.90;;;;;;5086190;28;20800;-78
2022/12/02 08:01:23;;;;;;;49.78;27.65;;;-0.10;99.90;;;;;;5085535;28;20668;-78
2022/12/02 08:03:49;;;;;;;46.22;27.00;;;-0.10;99.90;;;;;;5085609;28;20206;-78
2022/12/02 08:06:17;;;;;;;48.00;23.85;;;-0.10;99.90;;;;;;5090338;28;20233;-78
2022/12/02 08:08:44;;;;;;;52.10;27.38;;;-0.10;99.90;;;;;;5084047;28;20762;-77
2022/12/02 08:11:11;;;;;;;56.57;29.00;;;-0.10;99.90;;;;;;5095070;28;20239;-78
2022/12/02 08:13:37;;;;;;;41.60;20.87;;;-0.10;99.90;;;;;;5090384;28;20782;-78
2022/12/02 08:16:05;;;;;;;43.00;21.27;;;-0.10;99.90;;;;;;5100058;28;20519;-78
2022/12/02 08:18:33;;;;;;;43.63;23.80;;;-0.10;99.90;;;;;;5098496;28;20235;-78
2022/12/02 08:21:00;;;;;;;41.57;21.53;;;0.00;99.90;;;;;;5098773;28;20564;-78
2022/12/02 08:23:27;;;;;;;49.17;23.67;;;0.00;99.90;;;;;;5089801;28;20508;-78
2022/12/02 08:25:54;;;;;;;55.63;28.80;;;0.00;99.90;;;;;;5096692;28;20488;-78
2022/12/02 08:28:21;;;;;;;50.47;31.17;;;0.00;99.90;;;;;;5091694;28;20717;-78
2022/12/02 08:30:48;;;;;;;52.33;26.67;;;0.10;99.90;;;;;;5087838;28;20468;-78
2022/12/02 08:33:15;;;;;;;52.43;23.53;;;0.00;99.90;;;;;;5088457;28;21007;-78
2022/12/02 08:35:43;;;;;;;46.53;21.63;;;0.10;99.90;;;;;;5093363;28;20446;-77
2022/12/02 08:38:10;;;;;;;43.13;22.40;;;0.00;99.90;;;;;;5092760;28;20558;-77
2022/12/02 08:40:37;;;;;;;55.08;26.17;;;0.00;99.90;;;;;;5093502;28;20959;-77
2022/12/02 08:43:04;;;;;;;46.83;22.65;;;-0.10;99.90;;;;;;5103158;28;20295;-77
2022/12/02 08:45:31;;;;;;;52.65;25.58;;;0.00;99.90;;;;;;5091410;28;20841;-77
2022/12/02 08:47:58;;;;;;;41.13;23.23;;;0.00;99.90;;;;;;5096585;28;20258;-77
2022/12/02 08:50:25;;;;;;;47.22;25.25;;;0.00;99.90;;;;;;5089226;28;20258;-77
2022/12/02 08:52:54;;;;;;;43.17;22.80;;;0.00;99.90;;;;;;5105144;28;20204;-77
2022/12/02 08:55:21;;;;;;;52.85;27.55;;;0.10;99.90;;;;;;5104014;28;20476;-77
2022/12/02 08:57:47;;;;;;;41.63;24.53;;;0.10;99.90;;;;;;5103860;27;20604;-77
2022/12/02 09:00:16;;;;;;;54.13;23.58;;;0.00;99.90;;;;;;5101906;28;20485;-77
2022/12/02 09:02:43;;;;;;;44.40;21.97;;;0.10;99.90;;;;;;5095331;28;20705;-77
2022/12/02 09:05:10;;;;;;;48.03;25.23;;;0.20;99.90;;;;;;5104975;28;20506;-77
2022/12/02 09:07:37;;;;;;;43.43;23.67;;;0.10;99.90;;;;;;5105628;28;20480;-77
2022/12/02 09:10:08;;;;;;;47.50;23.93;;;0.10;99.90;;;;;;5093155;28;20498;-77
2022/12/02 09:12:35;;;;;;;46.90;21.67;;;0.20;99.90;;;;;;5103941;28;20456;-76
2022/12/02 09:15:02;;;;;;;54.20;22.70;;;0.20;99.90;;;;;;5106237;28;20540;-76
2022/12/02 09:17:29;;;;;;;43.37;25.20;;;0.20;99.90;;;;;;5102525;28;21085;-76
2022/12/02 09:19:56;;;;;;;48.97;26.77;;;0.30;99.90;;;;;;5097323;28;20773;-76
2022/12/02 09:22:23;;;;;;;36.60;19.55;;;0.30;99.90;;;;;;5094484;28;20514;-77
2022/12/02 09:24:50;;;;;;;43.37;21.50;;;0.20;99.90;;;;;;5091986;28;20241;-77
2022/12/02 09:27:18;;;;;;;44.90;25.33;;;0.10;99.90;;;;;;5095037;28;20498;-77
2022/12/02 09:29:45;;;;;;;45.67;22.20;;;0.20;99.90;;;;;;5098825;27;20489;-77
2022/12/02 09:32:12;;;;;;;49.10;23.07;;;0.20;99.90;;;;;;5091518;28;20480;-77
2022/12/02 09:34:39;;;;;;;45.50;21.53;;;0.30;99.90;;;;;;5091907;27;20571;-77
2022/12/02 09:37:06;;;;;;;48.23;22.37;;;0.20;99.90;;;;;;5106033;27;20558;-76
2022/12/02 09:39:32;;;;;;;42.77;21.37;;;0.30;99.90;;;;;;5098786;28;20557;-76
2022/12/02 09:42:00;;;;;;;50.07;24.57;;;0.30;99.90;;;;;;5089558;28;20863;-76
2022/12/02 09:44:28;;;;;;;48.73;24.40;;;0.30;99.90;;;;;;5093599;27;20486;-76
2022/12/02 09:46:55;;;;;;;38.30;21.70;;;0.20;99.90;;;;;;5096618;28;20515;-76
2022/12/02 09:49:22;;;;;;;43.13;21.90;;;0.20;99.90;;;;;;5109920;28;20437;-77
2022/12/02 09:51:50;;;;;;;46.03;24.35;;;0.30;99.90;;;;;;5100596;28;20831;-77
2022/12/02 09:54:17;;;;;;;46.60;22.83;;;0.40;99.90;;;;;;5085815;28;20237;-77
2022/12/02 09:56:44;;;;;;;51.05;24.85;;;0.30;99.90;;;;;;5096996;28;20492;-77
2022/12/02 09:59:16;;;;;;;59.10;25.77;;;0.30;99.90;;;;;;5098542;28;20652;-76
2022/12/02 10:01:47;;;;;;;47.70;23.93;;;0.30;99.90;;;;;;5093645;28;20490;-76
2022/12/02 10:04:16;;;;;;;42.77;21.33;;;0.40;99.90;;;;;;5088945;28;20553;-77
2022/12/02 10:06:43;;;;;;;53.20;23.60;;;0.40;99.90;;;;;;5087584;28;20486;-77
2022/12/02 10:09:17;;;;;;;55.13;27.93;;;0.40;99.90;;;;;;5085255;28;20957;-79
2022/12/02 10:11:44;;;;;;;44.37;23.50;;;0.40;99.90;;;;;;5095919;28;20545;-77
2022/12/02 10:14:13;;;;;;;45.53;22.70;;;0.40;99.90;;;;;;5094322;28;20522;-77
2022/12/02 10:16:40;;;;;;;41.57;22.37;;;0.40;99.90;;;;;;5098763;28;20807;-76
2022/12/02 10:19:16;;;;;;;55.23;25.77;;;0.30;99.90;;;;;;5101971;28;20625;-77
2022/12/02 10:21:43;;;;;;;47.77;22.37;;;0.40;99.90;;;;;;5088317;28;20546;-78
2022/12/02 10:24:12;;;;;;;50.40;24.70;;;0.40;99.90;;;;;;5085176;28;20459;-77
2022/12/02 10:26:47;;;;;;;49.13;22.37;;;0.30;99.90;;;;;;5091372;28;20968;-78
2022/12/02 10:29:17;;;;;;;48.03;24.47;;;0.30;99.90;;;;;;5097763;27;20509;-78
2022/12/02 10:31:56;;;;;;;56.00;28.60;;;0.30;99.90;;;;;;5095117;28;20446;-77
2022/12/02 10:34:26;;;;;;;46.97;25.03;;;0.30;99.90;;;;;;5087445;28;20981;-78
2022/12/02 10:36:53;;;;;;;50.97;24.03;;;0.30;99.90;;;;;;5095201;28;20550;-78
2022/12/02 10:39:27;;;;;;;46.57;21.83;;;0.30;99.90;;;;;;5090188;28;20493;-77
2022/12/02 10:42:15;;;;;;;46.10;23.10;;;0.30;99.90;;;;;;5087155;28;20485;-77
2022/12/02 10:44:44;;;;;;;48.77;23.50;;;0.30;99.90;;;;;;5097873;28;20785;-77
2022/12/02 10:47:15;;;;;;;53.60;25.67;;;0.30;99.90;;;;;;5094135;28;20567;-77
2022/12/02 10:49:48;;;;;;;50.40;24.55;;;0.30;99.90;;;;;;5083373;28;20236;-78
2022/12/02 10:52:17;;;;;;;37.33;20.23;;;0.20;99.90;;;;;;5085560;28;20239;-77
2022/12/02 10:54:47;;;;;;;44.63;21.05;;;0.30;99.90;;;;;;5086082;28;20490;-78
2022/12/02 10:57:22;;;;;;;56.70;23.95;;;0.20;99.90;;;;;;5084899;28;20653;-77
2022/12/02 10:59:50;;;;;;;58.95;23.80;;;0.20;99.90;;;;;;5093571;28;20481;-77
2022/12/02 11:02:22;;;;;;;56.03;25.92;;;0.30;99.90;;;;;;5088649;28;20673;-77
2022/12/02 11:04:51;;;;;;;43.55;24.35;;;0.30;99.90;;;;;;5093676;28;20428;-77
2022/12/02 11:07:21;;;;;;;45.70;22.53;;;0.30;99.90;;;;;;5088281;28;20253;-78
2022/12/02 11:09:53;;;;;;;61.03;28.40;;;0.40;99.90;;;;;;5083461;28;20478;-77
2022/12/02 11:12:56;;;;;;;48.53;24.05;;;0.40;99.90;;;;;;5099785;28;20539;-77
2022/12/02 11:15:36;;;;;;;42.57;18.40;;;0.40;99.90;;;;;;5096330;28;20210;-77
2022/12/02 11:18:04;;;;;;;47.93;24.17;;;0.30;99.90;;;;;;5091532;28;20463;-77
2022/12/02 11:20:38;;;;;;;45.47;23.73;;;0.30;99.90;;;;;;5088057;28;20514;-77
2022/12/02 11:23:27;;;;;;;51.88;24.20;;;0.30;99.90;;;;;;5087505;28;20580;-77
2022/12/02 11:26:02;;;;;;;56.78;24.50;;;0.40;99.90;;;;;;5094889;28;20266;-77
2022/12/02 11:29:15;;;;;;;46.10;24.37;;;0.50;99.90;;;;;;5090282;28;20265;-77
2022/12/02 11:31:42;;;;;;;49.10;21.52;;;0.40;99.90;;;;;;5082769;28;20454;-77
2022/12/02 11:34:39;;;;;;;42.40;24.90;;;0.40;99.90;;;;;;5083992;28;20227;-77
2022/12/02 11:37:42;;;;;;;44.17;24.40;;;0.40;99.90;;;;;;5086576;28;20272;-77
2022/12/02 11:40:45;;;;;;;40.73;22.10;;;0.50;99.90;;;;;;5085738;28;20608;-77
2022/12/02 11:43:41;;;;;;;46.67;23.83;;;0.60;99.90;;;;;;5084136;28;20598;-77
2022/12/02 11:46:08;;;;;;;48.63;23.23;;;0.70;99.90;;;;;;5084313;28;20547;-77
2022/12/02 11:48:44;;;;;;;40.53;21.57;;;0.80;99.90;;;;;;5085452;28;20508;-76
2022/12/02 11:51:33;;;;;;;40.20;23.43;;;0.80;99.90;;;;;;5089533;28;20484;-76
2022/12/02 11:54:02;;;;;;;45.20;22.37;;;0.80;99.90;;;;;;5093815;28;20443;-76
2022/12/02 11:56:36;;;;;;;42.00;24.37;;;0.80;99.90;;;;;;5091078;28;20450;-76
2022/12/02 11:59:03;;;;;;;36.87;21.73;;;0.80;99.90;;;;;;5098733;28;21024;-76
2022/12/02 12:01:30;;;;;;;48.07;21.77;;;0.80;99.90;;;;;;5094510;28;20548;-77
2022/12/02 12:03:57;;;;;;;46.10;25.43;;;0.90;99.90;;;;;;5090467;28;20606;-76
2022/12/02 12:06:27;;;;;;;48.97;29.50;;;0.90;99.90;;;;;;5094935;28;20493;-76
2022/12/02 12:08:55;;;;;;;41.93;25.50;;;0.90;99.90;;;;;;5088930;28;20456;-76
2022/12/02 12:11:27;;;;;;;40.63;22.40;;;0.90;99.90;;;;;;5096878;28;20461;-76
2022/12/02 12:14:01;;;;;;;35.90;20.60;;;0.80;99.90;;;;;;5104761;28;20449;-76
2022/12/02 12:16:31;;;;;;;34.17;18.97;;;1.00;99.90;;;;;;5099197;27;20493;-78
2022/12/02 12:18:58;;;;;;;33.73;19.10;;;0.90;99.90;;;;;;5097871;28;20959;-76
2022/12/02 12:21:44;;;;;;;37.40;20.43;;;0.90;99.90;;;;;;5107292;28;20465;-76
2022/12/02 12:24:32;;;;;;;35.80;19.30;;;0.80;99.90;;;;;;5109100;28;20450;-76
2022/12/02 12:27:32;;;;;;;39.60;21.60;;;0.90;99.90;;;;;;5106007;28;20649;-76
2022/12/02 12:29:59;;;;;;;38.37;18.80;;;0.90;99.90;;;;;;5093216;28;20489;-76
2022/12/02 12:32:26;;;;;;;34.10;18.47;;;0.90;99.90;;;;;;5093291;28;20917;-76
2022/12/02 12:34:54;;;;;;;31.30;19.00;;;0.90;99.90;;;;;;5099642;28;20467;-76
2022/12/02 12:37:21;;;;;;;33.97;19.17;;;0.80;99.90;;;;;;5087842;28;20496;-76
2022/12/02 12:39:48;;;;;;;39.87;19.20;;;0.80;99.90;;;;;;5090180;28;21033;-76
2022/12/02 12:42:16;;;;;;;32.77;16.87;;;0.70;99.90;;;;;;5091966;28;20481;-76
2022/12/02 12:44:43;;;;;;;34.03;19.93;;;0.70;99.90;;;;;;5085889;28;20474;-76
2022/12/02 12:47:10;;;;;;;31.73;17.30;;;0.60;99.90;;;;;;5087623;28;20479;-77
2022/12/02 12:49:37;;;;;;;29.33;17.80;;;0.60;99.90;;;;;;5087146;28;20483;-77
2022/12/02 12:52:04;;;;;;;32.10;19.40;;;0.60;99.90;;;;;;5091035;28;20209;-77